createdAt,value
2022-08-12T00:03:00.412Z,100642
2022-08-12T00:08:51.501Z,100654
2022-08-12T00:14:43.343Z,100643
2022-08-12T00:20:34.840Z,100655
2022-08-12T00:26:27.837Z,100657
2022-08-12T00:32:38.863Z,100656
2022-08-12T00:38:42.765Z,100656
2022-08-12T00:44:35.639Z,100645
2022-08-12T00:50:27.677Z,100636
2022-08-12T00:56:21.198Z,100643
2022-08-12T01:02:15.398Z,100650
2022-08-12T01:08:07.950Z,100648
2022-08-12T01:13:58.453Z,100643
2022-08-12T01:19:49.973Z,100649
2022-08-12T01:25:59.052Z,100652
2022-08-12T01:31:48.625Z,100658
2022-08-12T01:37:39.643Z,100648
2022-08-12T01:43:31.679Z,100655
2022-08-12T01:49:24.968Z,100663
2022-08-12T01:55:17.603Z,100657
2022-08-12T02:01:08.920Z,100653
2022-08-12T02:07:00.828Z,100657
2022-08-12T02:12:52.402Z,100655
2022-08-12T02:18:43.760Z,100649
2022-08-12T02:24:34.826Z,100649
2022-08-12T02:30:25.766Z,100646
2022-08-12T02:36:35.315Z,100644
2022-08-12T02:42:27.985Z,100650
2022-08-12T02:48:20.098Z,100649
2022-08-12T02:54:12.061Z,100646
2022-08-12T03:00:03.627Z,100649
2022-08-12T03:05:55.918Z,100651
2022-08-12T03:11:54.609Z,100641
2022-08-12T03:18:27.685Z,100649
2022-08-12T03:24:17.830Z,100649
2022-08-12T03:30:09.662Z,100643
2022-08-12T03:36:01.336Z,100646
2022-08-12T03:41:53.078Z,100651
2022-08-12T03:47:48.495Z,100650
2022-08-12T03:53:40.644Z,100650
2022-08-12T03:59:31.950Z,100655
2022-08-12T04:05:56.907Z,100653
2022-08-12T04:11:50.316Z,100657
2022-08-12T04:18:10.410Z,100665
2022-08-12T04:23:59.298Z,100667
2022-08-12T04:30:36.635Z,100666
2022-08-12T04:36:25.211Z,100671
2022-08-12T04:42:18.899Z,100663
2022-08-12T04:48:10.387Z,100661
2022-08-12T04:54:06.189Z,100669
2022-08-12T04:59:58.838Z,100659
2022-08-12T05:05:50.910Z,100668
2022-08-12T05:12:01.008Z,100671
2022-08-12T05:17:52.963Z,100669
2022-08-12T05:23:48.021Z,100663
2022-08-12T05:30:52.358Z,100674
2022-08-12T05:36:47.324Z,100672
2022-08-12T05:42:43.068Z,100670
2022-08-12T05:48:43.312Z,100680
2022-08-12T05:54:59.708Z,100678
2022-08-12T06:00:50.589Z,100675
2022-08-12T06:06:42.993Z,100671
2022-08-12T06:12:35.797Z,100677
2022-08-12T06:18:39.774Z,100676
2022-08-12T06:24:31.350Z,100678
2022-08-12T06:30:41.440Z,100676
2022-08-12T06:36:44.284Z,100670
2022-08-12T06:42:37.491Z,100663
2022-08-12T06:48:28.114Z,100672
2022-08-12T06:54:35.269Z,100675
2022-08-12T07:00:34.660Z,100672
2022-08-12T07:06:24.261Z,100671
2022-08-12T07:12:15.547Z,100671
2022-08-12T07:18:06.668Z,100672
2022-08-12T07:23:57.852Z,100670
2022-08-12T07:30:07.103Z,100673
2022-08-12T07:35:58.168Z,100678
2022-08-12T07:41:46.765Z,100669
2022-08-12T07:47:37.264Z,100674
2022-08-12T07:53:28.482Z,100681
2022-08-12T07:59:20.653Z,100686
2022-08-12T08:05:18.800Z,100681
2022-08-12T08:11:12.342Z,100680
2022-08-12T08:17:05.336Z,100683
2022-08-12T08:22:58.028Z,100679
2022-08-12T08:28:54.814Z,100682
2022-08-12T08:34:58.678Z,100684
2022-08-12T08:40:51.609Z,100678
2022-08-12T08:46:44.261Z,100682
2022-08-12T08:52:45.770Z,100678
2022-08-12T08:58:37.994Z,100673
2022-08-12T09:05:43.038Z,100662
2022-08-12T09:12:16.515Z,100667
2022-08-12T09:18:33.476Z,100663
2022-08-12T09:24:40.712Z,100679
2022-08-12T09:30:54.217Z,100663
2022-08-12T09:38:03.414Z,100662
2022-08-12T09:44:45.550Z,100649
2022-08-12T09:51:35.666Z,100651
2022-08-12T09:59:01.860Z,100638
2022-08-12T10:04:55.743Z,100631
2022-08-12T10:10:52.296Z,100626
2022-08-12T10:17:08.733Z,100621
2022-08-12T10:23:00.825Z,100619
2022-08-12T10:30:39.182Z,100606
2022-08-12T10:36:55.815Z,100611
2022-08-12T10:43:20.864Z,100601
2022-08-12T10:51:01.400Z,100595
2022-08-12T10:58:34.662Z,100584
2022-08-12T11:04:57.367Z,100588
2022-08-12T11:14:56.283Z,100561
2022-08-12T11:21:21.933Z,100548
2022-08-12T11:27:55.332Z,100543
2022-08-12T11:34:59.261Z,100529
2022-08-12T11:40:49.332Z,100525
2022-08-12T11:46:39.919Z,100523
2022-08-12T11:53:58.689Z,100526
2022-08-12T12:02:00.562Z,100508
2022-08-12T12:08:51.677Z,100513
2022-08-12T12:15:06.702Z,100505
2022-08-12T12:21:03.966Z,100492
2022-08-12T12:27:06.341Z,100485
2022-08-12T12:33:06.641Z,100475
2022-08-12T12:39:12.125Z,100465
2022-08-12T12:45:28.004Z,100467
2022-08-12T12:52:21.293Z,100462
2022-08-12T12:58:14.823Z,100453
2022-08-12T13:04:13.842Z,100441
2022-08-12T13:10:10.314Z,100442
2022-08-12T13:16:02.979Z,100420
2022-08-12T13:22:23.484Z,100442
2022-08-12T13:28:16.090Z,100414
2022-08-12T13:34:39.211Z,100427
2022-08-12T13:40:31.399Z,100422
2022-08-12T13:46:22.764Z,100406
2022-08-12T13:52:14.233Z,100407
2022-08-12T13:58:16.846Z,100395
2022-08-12T14:04:15.040Z,100382
2022-08-12T14:10:12.595Z,100392
2022-08-12T14:16:09.313Z,100398
2022-08-12T14:22:51.490Z,100389
2022-08-12T14:30:24.255Z,100388
2022-08-12T14:36:19.874Z,100381
2022-08-12T14:42:14.109Z,100378
2022-08-12T14:48:06.178Z,100373
2022-08-12T14:58:00.599Z,100374
2022-08-12T15:04:03.310Z,100362
2022-08-12T15:09:51.302Z,100368
2022-08-12T15:15:49.125Z,100360
2022-08-12T15:22:55.912Z,100358
2022-08-12T15:28:57.748Z,100363
2022-08-12T15:34:55.228Z,100347
2022-08-12T15:40:52.081Z,100345
2022-08-12T15:46:45.082Z,100344
2022-08-12T15:52:39.140Z,100343
2022-08-12T15:58:36.941Z,100336
2022-08-12T16:04:30.567Z,100337
2022-08-12T16:10:35.457Z,100337
2022-08-12T16:16:33.130Z,100336
2022-08-12T16:22:31.349Z,100332
2022-08-12T16:28:32.319Z,100327
2022-08-12T16:34:57.944Z,100317
2022-08-12T16:42:00.501Z,100310
2022-08-12T16:51:26.213Z,100311
2022-08-12T16:57:39.578Z,100302
2022-08-12T17:03:54.647Z,100309
2022-08-12T17:09:45.952Z,100303
2022-08-12T17:16:19.474Z,100321
2022-08-12T17:22:21.575Z,100307
2022-08-12T17:28:22.466Z,100310
2022-08-12T17:34:23.990Z,100311
2022-08-12T17:40:41.769Z,100308
2022-08-12T17:46:36.588Z,100310
2022-08-12T17:52:37.077Z,100309
2022-08-12T17:58:40.463Z,100315
2022-08-12T18:05:12.969Z,100313
2022-08-12T18:12:08.052Z,100317
2022-08-12T18:18:03.567Z,100329
2022-08-12T18:24:29.294Z,100342
2022-08-12T18:30:33.039Z,100346
2022-08-12T18:36:26.610Z,100350
2022-08-12T18:42:18.351Z,100359
2022-08-12T18:48:09.554Z,100359
2022-08-12T18:54:11.419Z,100369
2022-08-12T19:00:13.224Z,100369
2022-08-12T19:06:04.660Z,100369
2022-08-12T19:12:04.716Z,100376
2022-08-12T19:18:05.817Z,100376
2022-08-12T19:24:00.533Z,100383
2022-08-12T19:30:12.425Z,100385
2022-08-12T19:36:28.902Z,100387
2022-08-12T19:42:29.374Z,100380
2022-08-12T19:48:20.907Z,100390
2022-08-12T19:54:16.076Z,100394
2022-08-12T20:00:11.145Z,100389
2022-08-12T20:06:20.712Z,100396
2022-08-12T20:12:44.757Z,100392
2022-08-12T20:19:21.082Z,100398
2022-08-12T20:26:12.082Z,100398
2022-08-12T20:32:06.059Z,100399
2022-08-12T20:38:32.345Z,100392
2022-08-12T20:44:23.851Z,100397
2022-08-12T20:50:15.055Z,100403
2022-08-12T20:56:09.082Z,100392
2022-08-12T21:02:24.219Z,100405
2022-08-12T21:08:26.781Z,100402
2022-08-12T21:14:53.733Z,100397
2022-08-12T21:21:02.940Z,100399
2022-08-12T21:26:57.118Z,100404
2022-08-12T21:33:03.393Z,100403
2022-08-12T21:39:35.345Z,100407
2022-08-12T21:46:02.905Z,100415
2022-08-12T21:52:37.403Z,100413
2022-08-12T21:58:36.916Z,100418
2022-08-12T22:04:30.182Z,100411
2022-08-12T22:10:32.292Z,100420
2022-08-12T22:16:37.003Z,100411
2022-08-12T22:22:37.807Z,100418
2022-08-12T22:28:45.956Z,100425
2022-08-12T22:34:43.551Z,100431
2022-08-12T22:40:38.143Z,100415
2022-08-12T22:46:33.702Z,100423
2022-08-12T22:52:33.554Z,100425
2022-08-12T22:58:33.797Z,100426
2022-08-12T23:04:38.508Z,100427
2022-08-12T23:10:36.415Z,100425
2022-08-12T23:16:43.732Z,100412
2022-08-12T23:22:41.830Z,100420
2022-08-12T23:28:57.438Z,100423
2022-08-12T23:35:24.917Z,100422
2022-08-12T23:42:20.976Z,100426
2022-08-12T23:48:33.345Z,100424
2022-08-12T23:54:45.986Z,100425
